Airport View

Enter AWOS ICAO identifier for current METAR.

ex. KFNL

KHDN 192256Z AUTO 30011KT 10SM CLR 16/M05 A3008 RMK AO2 SLP146 T01561050

19 Oct 2020 23:33

Frequency: 119.275

Phone: 970-276-3690

Other Area AWOS: KCAG - KSBS - KC07 - KDWX

TAF AMD KEGE 191806Z 1918/2018 26015G24KT P6SM SCT250 FM200200 12008KT P6SM FEW250